Time;durP1;ratioP1;P1;durP2;ratioP2;P2;SDS_P1;SDS_P2;PMS_P1;PMS_P2;Temp;Humidity;BMP_temperature;BMP_pressure;BME280_temperature;BME280_humidity;BME280_pressure;Samples;Min_cycle;Max_cycle;Signal;HPM_P1;HPM_P2
2022/12/27 00:00:05;;;;;;;1.03;1.00;;;8.80;99.90;;;;;;5053328;28;20203;-49
2022/12/27 00:02:31;;;;;;;1.63;1.40;;;8.70;99.90;;;;;;5053361;28;20729;-51
2022/12/27 00:04:56;;;;;;;1.20;1.17;;;8.70;99.90;;;;;;5052751;28;20171;-50
2022/12/27 00:07:22;;;;;;;2.23;1.40;;;8.70;99.90;;;;;;5053103;28;20275;-51
2022/12/27 00:09:48;;;;;;;1.20;1.10;;;8.70;99.90;;;;;;5052969;28;20640;-50
2022/12/27 00:12:13;;;;;;;1.47;1.37;;;8.70;99.90;;;;;;5053144;28;20466;-51
2022/12/27 00:14:39;;;;;;;1.30;1.20;;;8.70;99.90;;;;;;5052463;28;20187;-51
2022/12/27 00:17:04;;;;;;;1.23;1.20;;;8.60;99.90;;;;;;5052664;28;20214;-49
2022/12/27 00:19:30;;;;;;;1.33;1.23;;;8.60;99.90;;;;;;5052557;28;20262;-51
2022/12/27 00:21:55;;;;;;;1.43;1.10;;;8.60;99.90;;;;;;5052912;28;20264;-51
2022/12/27 00:24:21;;;;;;;1.47;1.37;;;8.70;99.90;;;;;;5069096;28;20213;-50
2022/12/27 00:26:46;;;;;;;2.73;1.23;;;8.70;99.90;;;;;;5072680;28;20194;-51
2022/12/27 00:29:12;;;;;;;1.80;1.23;;;8.80;99.90;;;;;;5072776;28;20197;-51
2022/12/27 00:31:37;;;;;;;1.17;1.07;;;8.70;99.90;;;;;;5072595;28;20199;-54
2022/12/27 00:34:06;;;;;;;1.30;1.27;;;8.70;99.90;;;;;;5072283;28;20551;-53
2022/12/27 00:36:32;;;;;;;1.40;1.30;;;8.70;99.90;;;;;;5072280;28;20217;-50
2022/12/27 00:38:59;;;;;;;1.30;1.20;;;8.80;99.90;;;;;;5072604;28;20198;-50
2022/12/27 00:41:25;;;;;;;1.20;1.10;;;8.80;99.90;;;;;;5072331;28;20316;-49
2022/12/27 00:43:51;;;;;;;1.10;1.00;;;8.70;99.90;;;;;;5072029;28;20198;-50
2022/12/27 00:46:17;;;;;;;0.83;0.83;;;8.50;99.90;;;;;;5072144;28;20619;-49
2022/12/27 00:48:42;;;;;;;0.90;0.90;;;8.50;99.90;;;;;;5072352;28;20178;-49
2022/12/27 00:51:14;;;;;;;1.97;0.97;;;8.40;99.90;;;;;;5072118;28;20257;-52
2022/12/27 00:53:40;;;;;;;0.80;0.80;;;8.30;99.90;;;;;;5071953;28;20231;-50
2022/12/27 00:56:13;;;;;;;0.87;0.87;;;8.30;99.90;;;;;;5072176;28;20170;-50
2022/12/27 00:58:38;;;;;;;1.07;0.90;;;8.30;99.90;;;;;;5072020;28;20210;-50
2022/12/27 01:01:11;;;;;;;1.10;1.00;;;8.30;99.90;;;;;;5072128;28;20209;-50
2022/12/27 01:03:37;;;;;;;0.90;0.90;;;8.20;99.90;;;;;;5071493;28;20218;-52
2022/12/27 01:06:10;;;;;;;1.00;1.00;;;8.90;99.90;;;;;;5071979;28;20724;-51
2022/12/27 01:08:36;;;;;;;1.30;1.20;;;8.10;99.90;;;;;;5071742;28;20181;-51
2022/12/27 01:11:02;;;;;;;1.20;1.00;;;8.20;99.90;;;;;;5071956;28;20670;-49
2022/12/27 01:13:29;;;;;;;1.10;1.00;;;8.10;99.90;;;;;;5071303;28;20170;-48
2022/12/27 01:15:54;;;;;;;1.47;1.00;;;8.10;99.90;;;;;;5071587;28;20174;-49
2022/12/27 01:18:20;;;;;;;1.60;1.00;;;8.10;99.90;;;;;;5071456;28;20183;-53
2022/12/27 01:20:45;;;;;;;1.07;0.90;;;8.20;99.90;;;;;;5071797;28;20189;-49
2022/12/27 01:23:11;;;;;;;1.07;1.00;;;8.20;99.90;;;;;;5071510;28;20205;-51
2022/12/27 01:25:36;;;;;;;2.03;1.00;;;8.30;99.90;;;;;;5071249;28;20224;-50
2022/12/27 01:28:03;;;;;;;1.03;1.00;;;8.20;99.90;;;;;;5071068;28;20186;-50
2022/12/27 01:30:28;;;;;;;2.27;1.03;;;8.00;99.90;;;;;;5071021;28;20198;-52
2022/12/27 01:32:54;;;;;;;1.40;1.30;;;7.90;99.90;;;;;;5071603;28;20251;-51
2022/12/27 01:35:19;;;;;;;2.43;0.93;;;7.70;99.90;;;;;;5071041;28;20174;-49
2022/12/27 01:37:45;;;;;;;0.93;0.93;;;7.70;99.90;;;;;;5071450;28;20198;-50
2022/12/27 01:40:11;;;;;;;1.70;1.23;;;7.80;99.90;;;;;;5053283;28;20189;-50
2022/12/27 01:42:51;;;;;;;1.10;1.10;;;7.80;99.90;;;;;;5071268;28;20228;-50
2022/12/27 01:45:19;;;;;;;1.00;1.00;;;7.70;99.90;;;;;;5071000;28;20173;-50
2022/12/27 01:47:58;;;;;;;1.67;1.20;;;7.60;99.90;;;;;;5071433;28;20186;-49
2022/12/27 01:50:30;;;;;;;1.20;1.00;;;7.50;99.90;;;;;;5071050;28;20182;-52
2022/12/27 01:53:17;;;;;;;1.20;1.10;;;7.40;99.90;;;;;;5071452;28;20186;-49
2022/12/27 01:55:57;;;;;;;1.10;1.10;;;7.30;99.90;;;;;;5070866;28;20174;-50
2022/12/27 01:58:40;;;;;;;1.10;1.00;;;7.30;99.90;;;;;;5071181;28;20178;-50
2022/12/27 02:01:11;;;;;;;1.23;1.13;;;7.30;99.90;;;;;;5071123;28;20659;-51
2022/12/27 02:03:42;;;;;;;1.10;1.00;;;7.20;99.90;;;;;;5070920;28;20289;-53
2022/12/27 02:06:10;;;;;;;1.10;1.00;;;7.20;99.90;;;;;;5070994;28;21711;-50
2022/12/27 02:08:38;;;;;;;1.33;1.00;;;7.40;99.90;;;;;;5071053;28;20198;-50
2022/12/27 02:11:05;;;;;;;1.10;1.10;;;7.30;99.90;;;;;;5070975;28;20171;-53
2022/12/27 02:13:34;;;;;;;1.27;1.00;;;7.30;99.90;;;;;;5070677;28;20185;-52
2022/12/27 02:16:00;;;;;;;1.40;1.20;;;7.30;99.90;;;;;;5070893;28;20213;-49
2022/12/27 02:18:26;;;;;;;1.97;1.00;;;7.30;99.90;;;;;;5070755;28;20532;-50
2022/12/27 02:21:06;;;;;;;1.87;1.00;;;7.20;99.90;;;;;;5071053;28;20297;-51
2022/12/27 02:24:01;;;;;;;0.80;0.80;;;7.20;99.90;;;;;;5070479;28;20198;-49
2022/12/27 02:26:49;;;;;;;1.00;1.00;;;7.00;99.90;;;;;;5070849;28;20183;-49
2022/12/27 02:29:34;;;;;;;1.10;1.10;;;6.90;99.90;;;;;;5070852;28;20167;-53
2022/12/27 02:32:10;;;;;;;2.53;1.13;;;6.80;99.90;;;;;;5071009;28;20170;-53
2022/12/27 02:35:08;;;;;;;0.90;0.90;;;6.90;99.90;;;;;;5070387;28;20586;-47
2022/12/27 02:37:48;;;;;;;1.20;1.10;;;6.90;99.90;;;;;;5069988;28;20263;-50
2022/12/27 02:55:10;;;;;;;0.80;0.80;;;6.50;99.90;;;;;;5074194;28;20186;-51
2022/12/27 02:57:45;;;;;;;0.80;0.80;;;6.50;99.90;;;;;;5074345;28;20217;-49
2022/12/27 03:03:43;;;;;;;2.50;1.20;;;6.20;99.90;;;;;;5002384;28;20746;-53
2022/12/27 03:06:39;;;;;;;1.00;0.90;;;6.00;99.90;;;;;;5074034;28;20186;-51
2022/12/27 03:18:17;;;;;;;1.53;0.90;;;6.10;99.90;;;;;;5075012;28;20308;-51
2022/12/27 03:26:16;;;;;;;1.10;1.10;;;6.10;99.90;;;;;;5074044;28;20197;-48
2022/12/27 03:34:30;;;;;;;1.00;1.00;;;6.10;99.90;;;;;;5073367;28;20227;-52
2022/12/27 03:40:18;;;;;;;1.43;1.10;;;6.00;99.90;;;;;;5073557;28;20196;-54
2022/12/27 03:43:10;;;;;;;1.10;1.00;;;5.90;99.90;;;;;;5073605;28;20174;-50
2022/12/27 03:48:43;;;;;;;1.00;1.00;;;5.90;99.90;;;;;;5073488;28;20708;-54
2022/12/27 03:51:10;;;;;;;2.10;1.00;;;6.00;99.90;;;;;;5073248;28;20541;-52
2022/12/27 03:53:40;;;;;;;1.33;1.23;;;5.90;99.90;;;;;;5073076;28;20206;-54
2022/12/27 03:56:07;;;;;;;1.30;1.10;;;5.90;99.90;;;;;;5073172;28;20643;-52
2022/12/27 03:58:32;;;;;;;1.53;1.10;;;5.70;99.90;;;;;;5073295;28;20604;-53
2022/12/27 04:00:58;;;;;;;1.87;1.40;;;5.50;99.90;;;;;;5073159;28;20209;-53
2022/12/27 04:03:24;;;;;;;1.20;1.10;;;5.50;99.90;;;;;;5073233;28;20194;-51
2022/12/27 04:05:50;;;;;;;1.03;1.03;;;5.50;99.90;;;;;;5072835;28;20170;-51
2022/12/27 04:35:37;;;;;;;1.50;1.40;;;4.90;99.90;;;;;;5072504;28;20276;-49
2022/12/27 04:38:03;;;;;;;1.13;1.10;;;5.10;99.90;;;;;;5072285;28;20273;-49
2022/12/27 04:57:05;;;;;;;1.43;1.33;;;5.20;99.90;;;;;;5071725;28;20209;-50
2022/12/27 05:02:16;;;;;;;1.70;1.40;;;5.40;99.90;;;;;;5072230;28;20185;-49
2022/12/27 05:04:42;;;;;;;1.93;1.30;;;5.30;99.90;;;;;;5070618;28;20198;-50
2022/12/27 05:15:32;;;;;;;1.43;1.30;;;5.10;99.90;;;;;;5009452;28;20271;-50
2022/12/27 05:17:57;;;;;;;1.33;1.23;;;5.00;99.90;;;;;;5009800;28;20204;-49
2022/12/27 05:20:23;;;;;;;1.27;1.17;;;4.90;99.90;;;;;;5009680;28;20180;-49
2022/12/27 05:25:33;;;;;;;1.60;1.50;;;4.80;99.90;;;;;;5009659;28;20179;-51
2022/12/27 05:27:59;;;;;;;1.27;1.17;;;5.00;99.90;;;;;;5009481;28;20196;-49
2022/12/27 05:30:24;;;;;;;2.07;1.30;;;4.90;99.90;;;;;;5009477;28;20239;-49
2022/12/27 05:32:54;;;;;;;1.33;1.10;;;4.90;99.90;;;;;;5009601;28;20608;-50
2022/12/27 05:35:19;;;;;;;1.50;1.40;;;5.10;99.90;;;;;;5009425;28;20188;-49
2022/12/27 05:37:45;;;;;;;1.17;1.17;;;4.90;99.90;;;;;;5009332;28;20204;-49
2022/12/27 05:40:11;;;;;;;2.57;1.30;;;5.00;99.90;;;;;;5009636;28;20177;-49
2022/12/27 05:42:36;;;;;;;1.43;1.00;;;4.80;99.90;;;;;;5009111;28;20226;-53
2022/12/27 05:45:02;;;;;;;2.47;1.37;;;4.70;99.90;;;;;;5009275;28;20630;-50
2022/12/27 05:47:28;;;;;;;2.00;0.97;;;4.60;99.90;;;;;;5052503;28;20198;-51
2022/12/27 05:49:54;;;;;;;1.63;1.43;;;4.50;99.90;;;;;;5071603;28;20547;-51
2022/12/27 05:52:19;;;;;;;2.40;1.50;;;4.60;99.90;;;;;;5071268;28;20654;-50
2022/12/27 05:54:45;;;;;;;1.23;1.13;;;4.50;99.90;;;;;;5069937;28;20183;-48
2022/12/27 05:57:10;;;;;;;1.20;1.10;;;4.50;99.90;;;;;;5066398;28;20186;-49
2022/12/27 05:59:36;;;;;;;1.40;1.30;;;4.50;99.90;;;;;;5052117;28;20178;-49
2022/12/27 06:02:02;;;;;;;1.40;1.30;;;4.40;99.90;;;;;;5071224;28;20205;-48
2022/12/27 06:04:27;;;;;;;0.97;0.97;;;4.40;99.90;;;;;;5070674;28;20240;-49
2022/12/27 06:06:53;;;;;;;1.20;1.17;;;4.30;99.90;;;;;;5071021;28;20198;-49
2022/12/27 06:09:18;;;;;;;1.20;1.07;;;4.20;99.90;;;;;;5070917;28;20170;-49
2022/12/27 06:11:44;;;;;;;2.30;1.20;;;4.20;99.90;;;;;;5070948;28;20709;-49
2022/12/27 06:14:09;;;;;;;2.60;1.40;;;4.20;99.90;;;;;;5065444;28;20666;-50
2022/12/27 06:16:35;;;;;;;2.70;1.50;;;4.20;99.90;;;;;;5055330;28;20214;-50
2022/12/27 06:19:00;;;;;;;1.67;1.23;;;4.10;99.90;;;;;;5068275;28;20243;-49
2022/12/27 06:21:26;;;;;;;1.70;1.30;;;4.10;99.90;;;;;;5066497;28;20182;-50
2022/12/27 06:23:51;;;;;;;1.53;1.40;;;4.10;99.90;;;;;;5055885;28;20195;-51
2022/12/27 06:26:20;;;;;;;1.33;1.20;;;4.10;99.90;;;;;;5053441;28;20206;-49
2022/12/27 06:28:48;;;;;;;1.33;1.13;;;4.20;99.90;;;;;;5063001;28;20183;-49
2022/12/27 06:31:14;;;;;;;1.57;1.27;;;4.30;99.90;;;;;;5067560;28;20181;-49
2022/12/27 06:33:40;;;;;;;1.20;1.10;;;4.40;99.90;;;;;;5057725;28;20186;-47
2022/12/27 06:36:11;;;;;;;3.97;2.00;;;4.40;99.90;;;;;;5067002;28;20563;-49
2022/12/27 06:38:37;;;;;;;1.83;1.30;;;4.50;99.90;;;;;;5055870;28;20551;-51
2022/12/27 06:41:04;;;;;;;2.07;1.27;;;4.50;99.90;;;;;;5052623;28;20180;-49
2022/12/27 06:43:30;;;;;;;1.30;1.00;;;4.60;99.90;;;;;;5067407;28;20205;-49
2022/12/27 06:46:01;;;;;;;1.50;1.40;;;4.70;99.90;;;;;;5070542;28;20170;-50
2022/12/27 06:48:27;;;;;;;1.37;1.27;;;4.80;99.90;;;;;;5066766;28;20266;-48
2022/12/27 06:50:53;;;;;;;1.70;1.10;;;4.90;99.90;;;;;;5067595;28;20588;-51
2022/12/27 06:53:19;;;;;;;2.60;1.60;;;5.00;99.90;;;;;;5067751;28;20202;-48
2022/12/27 06:55:45;;;;;;;1.60;1.43;;;5.10;99.90;;;;;;5065935;28;20198;-48
2022/12/27 06:58:11;;;;;;;3.30;1.40;;;5.20;99.90;;;;;;5061910;28;20683;-48
2022/12/27 07:00:37;;;;;;;2.23;1.60;;;5.10;99.90;;;;;;5053209;28;20266;-48
2022/12/27 07:03:03;;;;;;;1.10;1.00;;;5.40;99.90;;;;;;5052220;28;20234;-48
2022/12/27 07:05:28;;;;;;;3.63;1.60;;;5.00;99.90;;;;;;5052447;28;20214;-49
2022/12/27 07:07:54;;;;;;;2.03;1.67;;;5.00;99.90;;;;;;5053228;28;20884;-48
2022/12/27 07:10:20;;;;;;;1.40;1.30;;;5.00;99.90;;;;;;5051867;28;20601;-47
2022/12/27 07:12:45;;;;;;;1.37;1.30;;;5.00;99.90;;;;;;5052096;28;20602;-47
2022/12/27 07:15:11;;;;;;;1.70;1.50;;;5.00;99.90;;;;;;5066432;28;20185;-49
2022/12/27 07:17:38;;;;;;;2.23;1.27;;;5.00;99.90;;;;;;5068898;28;20211;-47
2022/12/27 07:20:04;;;;;;;2.03;1.53;;;5.00;99.90;;;;;;5064348;28;20178;-48
2022/12/27 07:22:30;;;;;;;2.13;1.30;;;5.10;99.90;;;;;;5063789;28;20606;-49
2022/12/27 07:24:55;;;;;;;1.73;1.43;;;5.20;99.90;;;;;;5061892;28;20234;-53
2022/12/27 07:27:21;;;;;;;2.57;1.50;;;5.30;99.90;;;;;;5070259;28;20251;-48
2022/12/27 07:29:46;;;;;;;4.80;1.77;;;5.40;99.90;;;;;;5072726;28;20186;-48
2022/12/27 07:32:12;;;;;;;2.93;2.03;;;5.50;99.90;;;;;;5066206;28;20175;-48
2022/12/27 07:34:38;;;;;;;2.13;1.90;;;5.50;99.90;;;;;;5055023;28;20561;-49
2022/12/27 07:37:03;;;;;;;1.80;1.70;;;5.60;99.90;;;;;;5054398;28;20198;-50
2022/12/27 07:39:29;;;;;;;1.47;1.30;;;5.60;99.90;;;;;;5053925;28;20548;-48
2022/12/27 07:41:54;;;;;;;2.10;1.50;;;5.50;99.90;;;;;;5054203;28;20187;-49
2022/12/27 07:44:20;;;;;;;1.40;1.30;;;5.60;99.90;;;;;;5053866;28;20207;-47
2022/12/27 07:46:45;;;;;;;3.37;1.80;;;5.60;99.90;;;;;;5054214;28;20194;-48
2022/12/27 07:49:11;;;;;;;2.83;1.70;;;5.60;99.90;;;;;;5054242;28;20206;-49
2022/12/27 07:51:36;;;;;;;1.80;1.70;;;5.60;99.90;;;;;;5054115;28;20179;-51
2022/12/27 07:54:02;;;;;;;1.87;1.70;;;5.60;99.90;;;;;;5053813;28;20224;-49
2022/12/27 07:56:28;;;;;;;1.50;1.40;;;5.60;99.90;;;;;;5054012;28;20198;-48
2022/12/27 07:58:59;;;;;;;3.13;1.67;;;5.60;99.90;;;;;;5054059;28;20174;-50
2022/12/27 08:01:26;;;;;;;4.07;1.77;;;5.70;99.90;;;;;;5053982;28;20598;-49
2022/12/27 08:03:52;;;;;;;3.47;1.83;;;5.80;99.90;;;;;;5053559;28;20222;-48
2022/12/27 08:06:28;;;;;;;1.87;1.50;;;5.90;99.90;;;;;;5053841;28;20191;-51
2022/12/27 08:08:56;;;;;;;1.60;1.50;;;6.00;99.90;;;;;;5053822;28;20171;-48
2022/12/27 08:11:22;;;;;;;2.10;1.80;;;6.10;99.90;;;;;;5053875;28;20530;-50
2022/12/27 08:13:48;;;;;;;2.93;2.73;;;6.20;99.90;;;;;;5053322;28;20175;-49
2022/12/27 08:16:17;;;;;;;1.90;1.80;;;6.40;99.90;;;;;;5053603;28;20654;-49
2022/12/27 08:18:43;;;;;;;3.10;2.87;;;6.80;99.90;;;;;;5053595;28;20172;-49
2022/12/27 08:21:08;;;;;;;1.83;1.63;;;7.50;99.90;;;;;;5053945;28;20506;-49
2022/12/27 08:23:34;;;;;;;3.17;1.70;;;8.20;99.90;;;;;;5053125;28;20206;-45
2022/12/27 08:25:59;;;;;;;2.20;1.37;;;8.70;99.90;;;;;;5053467;28;20637;-48
2022/12/27 08:28:30;;;;;;;1.00;1.00;;;8.90;99.90;;;;;;5053429;28;20250;-49
2022/12/27 08:30:56;;;;;;;1.53;1.17;;;9.10;99.90;;;;;;5053410;28;20167;-49
2022/12/27 08:33:22;;;;;;;3.47;1.57;;;9.60;99.90;;;;;;5053203;28;20653;-49
2022/12/27 08:35:47;;;;;;;2.20;1.47;;;9.90;99.90;;;;;;5053259;28;20189;-51
2022/12/27 08:38:13;;;;;;;2.13;1.20;;;10.10;99.90;;;;;;5053151;28;20191;-51
2022/12/27 08:40:40;;;;;;;1.20;1.10;;;10.40;99.90;;;;;;5053193;28;20201;-49
2022/12/27 08:43:06;;;;;;;1.27;1.17;;;10.60;99.90;;;;;;5053006;28;20195;-48
2022/12/27 08:45:31;;;;;;;1.70;1.60;;;10.50;99.90;;;;;;5052868;28;20198;-52
2022/12/27 08:48:00;;;;;;;2.07;1.53;;;11.40;99.90;;;;;;5052861;28;20222;-50
2022/12/27 08:50:26;;;;;;;3.00;1.97;;;10.60;99.90;;;;;;5053150;28;20163;-52
2022/12/27 08:52:56;;;;;;;2.57;1.90;;;9.90;99.90;;;;;;5052963;28;20159;-50
2022/12/27 08:55:21;;;;;;;2.30;1.80;;;9.80;99.90;;;;;;5052683;28;20540;-54
2022/12/27 08:57:47;;;;;;;1.83;1.73;;;9.60;99.90;;;;;;5052637;28;20183;-48
2022/12/27 09:00:13;;;;;;;3.20;1.87;;;9.50;99.90;;;;;;5052917;28;20698;-50
2022/12/27 09:02:38;;;;;;;3.53;1.83;;;9.40;99.90;;;;;;5052649;28;20602;-49
2022/12/27 09:05:04;;;;;;;8.13;2.83;;;9.30;99.90;;;;;;5052347;28;20294;-52
2022/12/27 09:07:31;;;;;;;12.03;9.63;;;9.20;99.90;;;;;;5052704;28;20224;-53
2022/12/27 09:09:56;;;;;;;4.43;3.50;;;9.10;99.90;;;;;;5052630;28;20179;-49
2022/12/27 09:12:22;;;;;;;2.73;2.53;;;9.30;99.90;;;;;;5052594;28;20285;-51
2022/12/27 09:14:48;;;;;;;2.90;2.30;;;9.10;99.90;;;;;;5052207;28;20179;-53
2022/12/27 09:17:13;;;;;;;2.60;1.87;;;9.00;99.90;;;;;;5052316;28;20562;-48
2022/12/27 09:19:39;;;;;;;2.47;1.97;;;8.80;99.90;;;;;;5052517;28;20648;-51
2022/12/27 09:22:04;;;;;;;2.27;1.50;;;8.80;99.90;;;;;;5052490;28;20175;-50
2022/12/27 09:24:30;;;;;;;2.50;2.07;;;8.80;99.90;;;;;;5052096;28;20207;-49
2022/12/27 09:26:55;;;;;;;3.40;2.03;;;8.80;99.90;;;;;;5052171;28;20191;-51
2022/12/27 09:29:21;;;;;;;3.27;2.40;;;8.90;99.90;;;;;;5070042;28;20182;-49
2022/12/27 09:31:46;;;;;;;3.13;2.40;;;9.00;99.90;;;;;;5071934;28;20170;-52
2022/12/27 09:34:12;;;;;;;2.67;2.47;;;9.00;99.90;;;;;;5071938;28;20662;-52
2022/12/27 09:36:39;;;;;;;2.60;2.37;;;9.10;99.90;;;;;;5072023;28;20610;-52
2022/12/27 09:39:04;;;;;;;2.37;2.07;;;9.20;99.90;;;;;;5072235;28;20201;-48
2022/12/27 09:41:45;;;;;;;2.77;2.03;;;9.40;99.90;;;;;;5072208;28;20685;-49
2022/12/27 09:44:21;;;;;;;2.57;1.70;;;9.60;99.90;;;;;;5071685;28;20189;-49
2022/12/27 09:46:50;;;;;;;1.90;1.50;;;9.70;99.90;;;;;;5072024;28;20225;-52
2022/12/27 09:49:24;;;;;;;8.83;8.03;;;9.80;99.90;;;;;;5071488;28;20177;-53
2022/12/27 09:51:58;;;;;;;2.90;1.83;;;9.90;99.90;;;;;;5072049;28;20198;-49
2022/12/27 09:54:34;;;;;;;1.73;1.63;;;10.00;99.90;;;;;;5071575;28;20220;-52
2022/12/27 09:57:01;;;;;;;2.07;1.87;;;9.80;99.90;;;;;;5063526;28;20208;-51
2022/12/27 09:59:38;;;;;;;1.97;1.60;;;9.80;99.90;;;;;;5057742;28;20183;-51
2022/12/27 10:02:22;;;;;;;2.93;1.80;;;9.80;99.90;;;;;;5071968;28;20219;-52
2022/12/27 10:04:49;;;;;;;2.90;2.00;;;9.60;99.90;;;;;;5058090;28;20210;-49
2022/12/27 10:07:26;;;;;;;2.50;1.70;;;9.90;99.90;;;;;;5051696;28;20187;-51
2022/12/27 10:09:58;;;;;;;2.03;1.70;;;10.80;99.90;;;;;;5051829;28;20163;-50
2022/12/27 10:12:32;;;;;;;2.23;1.40;;;12.60;99.90;;;;;;5051395;28;20167;-54
2022/12/27 10:15:10;;;;;;;2.80;1.23;;;13.50;99.50;;;;;;5051548;28;20178;-54
2022/12/27 10:17:41;;;;;;;3.27;1.47;;;14.70;96.70;;;;;;5058256;28;20236;-53
2022/12/27 10:20:10;;;;;;;1.53;1.40;;;15.40;96.00;;;;;;5071363;28;20253;-53
2022/12/27 10:22:46;;;;;;;3.97;1.40;;;16.40;94.70;;;;;;5071677;28;20209;-54
2022/12/27 10:25:14;;;;;;;2.05;1.40;;;18.00;91.50;;;;;;5071300;28;20182;-55
2022/12/27 10:27:40;;;;;;;2.45;1.30;;;19.20;88.00;;;;;;5046392;28;20702;-47
2022/12/27 10:30:13;;;;;;;2.25;1.20;;;20.00;83.10;;;;;;5070943;28;20182;-54
2022/12/27 10:32:38;;;;;;;2.97;1.27;;;19.50;82.00;;;;;;5071552;28;20179;-52
2022/12/27 10:35:04;;;;;;;1.85;1.30;;;19.10;83.00;;;;;;5070850;28;20185;-50
2022/12/27 10:37:30;;;;;;;1.50;1.20;;;18.50;83.70;;;;;;5065631;28;20220;-52
2022/12/27 10:40:29;;;;;;;3.28;1.60;;;18.30;88.40;;;;;;5051340;28;20206;-54
2022/12/27 10:43:02;;;;;;;1.98;1.30;;;19.20;82.30;;;;;;5038036;28;20195;-49
2022/12/27 10:45:37;;;;;;;1.70;1.25;;;18.80;80.90;;;;;;5050953;28;20166;-49
2022/12/27 10:48:17;;;;;;;2.17;1.60;;;18.50;82.70;;;;;;5060944;28;20198;-52
2022/12/27 10:50:46;;;;;;;1.58;1.13;;;18.00;83.10;;;;;;5071553;28;20172;-50
2022/12/27 10:53:32;;;;;;;1.60;1.23;;;17.50;81.30;;;;;;5071069;28;20185;-51
2022/12/27 10:56:34;;;;;;;2.30;1.27;;;16.30;83.70;;;;;;5071224;28;20185;-52
2022/12/27 10:59:20;;;;;;;2.20;1.33;;;13.90;86.00;;;;;;5065873;28;20260;-47
2022/12/27 11:02:07;;;;;;;2.33;1.77;;;12.40;92.20;;;;;;5054138;28;20717;-50
2022/12/27 11:04:32;;;;;;;2.33;1.63;;;12.10;94.40;;;;;;5060098;28;20304;-48
2022/12/27 11:07:01;;;;;;;3.83;1.43;;;12.20;95.00;;;;;;5073252;28;20233;-49
2022/12/27 11:09:34;;;;;;;1.60;1.40;;;13.40;94.20;;;;;;5074831;28;20196;-51
2022/12/27 11:12:23;;;;;;;1.33;1.00;;;13.80;93.30;;;;;;5074623;28;20167;-50
2022/12/27 11:15:17;;;;;;;1.53;1.20;;;14.90;93.30;;;;;;5074542;28;20181;-49
2022/12/27 11:17:45;;;;;;;2.37;1.20;;;15.80;91.70;;;;;;5054494;28;20561;-50
2022/12/27 11:20:13;;;;;;;1.90;1.30;;;17.30;91.00;;;;;;5037087;28;20190;-51
2022/12/27 11:22:45;;;;;;;1.40;1.27;;;17.80;87.60;;;;;;5054547;28;20176;-49
2022/12/27 11:25:13;;;;;;;3.60;1.30;;;17.50;83.70;;;;;;5054376;28;20688;-48
2022/12/27 11:27:44;;;;;;;1.37;1.10;;;17.30;86.20;;;;;;5073362;28;20667;-49
2022/12/27 11:30:24;;;;;;;1.20;1.08;;;17.20;87.60;;;;;;5074541;28;20196;-51
2022/12/27 11:32:51;;;;;;;1.90;1.08;;;18.50;85.80;;;;;;5074554;28;20588;-51
2022/12/27 11:35:20;;;;;;;1.58;0.93;;;18.40;79.60;;;;;;5073704;28;20172;-50
2022/12/27 11:37:47;;;;;;;2.03;0.85;;;18.10;83.20;;;;;;5042685;28;20205;-50
2022/12/27 11:40:29;;;;;;;2.63;1.13;;;18.40;81.20;;;;;;5060133;28;20181;-51
2022/12/27 11:43:06;;;;;;;1.60;1.25;;;18.30;80.00;;;;;;5074148;28;20178;-51
2022/12/27 11:45:40;;;;;;;2.08;1.00;;;18.00;80.60;;;;;;5072038;28;20241;-52
2022/12/27 11:48:19;;;;;;;1.07;0.97;;;17.30;79.70;;;;;;5050984;28;20191;-51
2022/12/27 11:51:00;;;;;;;1.40;1.30;;;16.20;80.20;;;;;;5052324;28;20924;-50
2022/12/27 11:53:41;;;;;;;1.20;1.10;;;15.20;84.40;;;;;;5072526;28;20185;-53
2022/12/27 11:56:18;;;;;;;1.47;1.00;;;14.30;83.70;;;;;;5069151;28;20221;-51
2022/12/27 11:59:05;;;;;;;2.83;1.33;;;13.30;88.20;;;;;;5073537;28;20171;-52
2022/12/27 12:02:03;;;;;;;1.67;1.00;;;12.20;90.40;;;;;;5073773;28;20185;-50
2022/12/27 12:05:16;;;;;;;3.30;2.30;;;11.80;94.00;;;;;;5066627;28;20210;-54
2022/12/27 12:07:53;;;;;;;12.73;9.63;;;12.60;92.80;;;;;;4991831;28;20227;-49
2022/12/27 12:10:31;;;;;;;5.40;1.33;;;12.80;92.60;;;;;;4991593;28;20654;-50
2022/12/27 12:13:35;;;;;;;2.20;1.70;;;12.40;92.40;;;;;;4991058;28;20177;-52
2022/12/27 12:16:30;;;;;;;1.93;1.40;;;11.80;93.70;;;;;;4950913;28;20206;-51
2022/12/27 12:19:14;;;;;;;2.57;1.00;;;11.60;96.30;;;;;;4992098;28;20656;-49
2022/12/27 12:21:49;;;;;;;2.30;1.30;;;12.10;96.60;;;;;;4991101;28;20285;-51
2022/12/27 12:24:28;;;;;;;1.80;1.20;;;13.00;95.40;;;;;;4988382;28;20220;-50
2022/12/27 12:27:31;;;;;;;6.13;1.30;;;13.20;95.00;;;;;;4955517;28;20205;-51
2022/12/27 12:30:21;;;;;;;2.23;1.33;;;13.00;94.20;;;;;;4972103;28;20212;-51
2022/12/27 12:32:51;;;;;;;2.30;1.33;;;13.50;94.10;;;;;;4971940;28;20173;-51
2022/12/27 12:35:35;;;;;;;3.80;1.30;;;13.30;92.10;;;;;;4956371;28;20237;-50
2022/12/27 12:38:22;;;;;;;4.07;1.00;;;12.80;92.50;;;;;;4973009;28;20255;-51
2022/12/27 12:41:02;;;;;;;1.83;1.17;;;12.00;92.80;;;;;;4980996;28;20286;-50
2022/12/27 12:43:48;;;;;;;1.83;1.27;;;11.50;95.60;;;;;;5005784;28;20670;-51
2022/12/27 12:46:41;;;;;;;2.17;1.00;;;11.60;93.80;;;;;;5057783;28;20196;-48
2022/12/27 12:49:33;;;;;;;1.70;1.00;;;12.10;95.80;;;;;;5035026;28;20217;-52
2022/12/27 12:52:06;;;;;;;1.50;1.23;;;11.90;96.30;;;;;;5040762;28;20179;-48
2022/12/27 12:54:50;;;;;;;2.27;1.33;;;12.20;95.30;;;;;;5065821;28;20174;-50
2022/12/27 12:57:42;;;;;;;2.87;1.20;;;12.10;93.70;;;;;;5069668;28;20217;-49
2022/12/27 13:00:29;;;;;;;2.07;1.23;;;11.90;94.30;;;;;;4991091;28;20190;-48
2022/12/27 13:03:14;;;;;;;1.33;1.00;;;11.60;94.60;;;;;;4990763;28;20188;-50
2022/12/27 13:05:59;;;;;;;2.53;0.83;;;11.30;94.70;;;;;;4989907;28;20244;-51
2022/12/27 13:08:30;;;;;;;1.97;0.97;;;11.20;94.50;;;;;;4990760;28;20173;-49
2022/12/27 13:11:23;;;;;;;2.63;1.23;;;10.70;95.00;;;;;;4990873;28;20185;-49
2022/12/27 13:14:22;;;;;;;2.47;1.17;;;10.50;96.10;;;;;;4990138;28;20205;-49
2022/12/27 13:17:05;;;;;;;2.03;1.23;;;10.40;95.60;;;;;;4990548;28;20221;-49
2022/12/27 13:20:13;;;;;;;1.63;1.13;;;10.20;96.50;;;;;;4990403;28;20184;-49
2022/12/27 13:22:58;;;;;;;1.33;1.20;;;9.80;97.50;;;;;;4996504;28;20181;-51
2022/12/27 13:25:50;;;;;;;3.57;1.43;;;9.70;97.50;;;;;;4998895;28;20304;-48
2022/12/27 13:28:56;;;;;;;1.37;1.13;;;9.60;98.50;;;;;;4988616;28;20205;-51
2022/12/27 13:31:40;;;;;;;2.27;1.30;;;9.60;99.60;;;;;;5001255;28;20277;-49
2022/12/27 13:34:43;;;;;;;2.00;1.23;;;9.40;99.40;;;;;;5006549;28;20266;-50
2022/12/27 13:37:21;;;;;;;1.23;0.90;;;9.20;99.40;;;;;;5030602;28;20357;-52
2022/12/27 13:39:58;;;;;;;2.50;1.47;;;9.00;99.90;;;;;;5072135;28;20178;-49
2022/12/27 13:42:58;;;;;;;1.90;1.17;;;9.00;99.90;;;;;;5057315;28;20874;-50
2022/12/27 13:45:38;;;;;;;3.60;1.20;;;9.00;99.90;;;;;;5062423;28;20178;-49
2022/12/27 13:48:25;;;;;;;1.50;1.10;;;9.00;99.90;;;;;;5052662;28;20194;-49
2022/12/27 13:51:15;;;;;;;1.40;1.30;;;9.00;99.90;;;;;;5057308;28;20175;-50
2022/12/27 13:54:10;;;;;;;1.23;1.13;;;9.00;99.90;;;;;;5056926;28;20182;-50
2022/12/27 13:56:48;;;;;;;3.73;1.50;;;8.90;99.90;;;;;;5054338;28;20202;-52
2022/12/27 13:59:22;;;;;;;3.20;1.30;;;9.00;99.90;;;;;;5057647;28;20175;-52
2022/12/27 14:02:15;;;;;;;1.40;1.10;;;9.10;99.90;;;;;;5058246;28;20178;-53
2022/12/27 14:04:56;;;;;;;1.13;1.03;;;9.20;99.90;;;;;;5066526;28;20613;-49
2022/12/27 14:07:42;;;;;;;3.60;1.47;;;9.10;99.90;;;;;;5058088;28;20221;-49
2022/12/27 14:10:14;;;;;;;3.57;1.30;;;9.10;99.90;;;;;;5052894;28;20175;-52
2022/12/27 14:13:10;;;;;;;2.10;1.37;;;8.90;99.90;;;;;;5063931;28;20765;-51
2022/12/27 14:15:56;;;;;;;2.87;1.60;;;8.70;99.90;;;;;;4982697;28;20185;-51
2022/12/27 14:18:48;;;;;;;1.97;1.40;;;8.40;99.90;;;;;;4976706;28;20188;-50
2022/12/27 14:21:32;;;;;;;1.73;1.20;;;8.30;99.90;;;;;;4983398;28;20677;-49
2022/12/27 14:24:31;;;;;;;2.03;1.40;;;8.30;99.90;;;;;;4976979;28;20243;-49
2022/12/27 14:26:57;;;;;;;3.07;1.50;;;8.40;99.90;;;;;;4986366;28;20221;-50
2022/12/27 14:29:34;;;;;;;2.97;1.60;;;8.40;99.90;;;;;;4988789;28;20241;-51
2022/12/27 14:32:19;;;;;;;2.13;1.23;;;8.30;99.90;;;;;;4989244;28;20192;-49
2022/12/27 14:35:02;;;;;;;2.57;1.50;;;8.30;99.90;;;;;;4985366;28;20643;-52
2022/12/27 14:37:52;;;;;;;5.83;1.53;;;8.20;99.90;;;;;;4976609;28;20197;-51
2022/12/27 14:40:27;;;;;;;1.60;1.27;;;8.00;99.90;;;;;;4975831;28;20692;-49
2022/12/27 14:43:16;;;;;;;2.07;1.10;;;8.50;99.90;;;;;;4973977;28;20181;-49
2022/12/27 14:46:22;;;;;;;2.57;1.60;;;7.80;99.90;;;;;;4976707;28;20575;-50
2022/12/27 14:49:09;;;;;;;3.90;1.40;;;7.80;99.90;;;;;;4986491;28;20673;-47
2022/12/27 14:52:23;;;;;;;5.13;1.30;;;7.90;99.90;;;;;;5007246;28;20309;-47
2022/12/27 14:55:15;;;;;;;1.90;1.27;;;8.10;99.90;;;;;;4983552;28;20193;-50
2022/12/27 14:58:11;;;;;;;1.97;1.53;;;8.20;99.90;;;;;;4994760;28;20209;-51
2022/12/27 15:01:19;;;;;;;1.63;1.30;;;8.20;99.90;;;;;;4990538;28;20179;-49
2022/12/27 15:03:59;;;;;;;2.77;1.47;;;8.30;99.90;;;;;;4915368;29;20319;-54
2022/12/27 15:06:43;;;;;;;2.17;1.50;;;8.50;99.90;;;;;;4928462;29;20303;-49
2022/12/27 15:09:33;;;;;;;1.63;1.53;;;8.50;99.90;;;;;;4916963;29;20657;-54